AirNav   Air Wisconsin pilot careers
 
 617 users online  

6TS6 Wood Crest Ranch Airport
Normangee, Texas, USA

GOING TO NORMANGEE?


FAA INFORMATION EFFECTIVE 16 AUGUST 2018

Location

FAA Identifier: 6TS6
Lat/Long: 31-02-29.6690N / 096-12-05.8580W
31-02.494483N / 096-12.097633W
31.0415747 / -96.2016272
(estimated)
Elevation: 410 ft. / 125 m (estimated)
Variation: 06E (1985)
From city: 6 miles W of NORMANGEE, TX
Time zone: UTC -5 (UTC -6 during Standard Time)
Zip code: 77871

Airport Operations

Airport use: Private use. Permission required prior to landing
Activation date: 07/1985
Control tower: no
ARTCC: HOUSTON CENTER
FSS: MONTGOMERY COUNTY FLIGHT SERVICE STATION
Attendance: UNATNDD
Wind indicator: yes
Segmented circle: yes

Nearby radio navigation aids

VOR radial/distance  VOR name  Freq  Var
LOAr240/13.0LEONA VORTAC110.8008E
CLLr015/28.5COLLEGE STATION VORTAC113.3008E
GNLr146/37.0GROESBECK VOR/DME108.8005E

 
NDB name  Hdg/Dist  Freq  Var  ID
HUNTSVILLE294/36.330806EUTS ..- - ...
MEXIA152/39.332904ELXY .-.. -..- -.--

Airport Services

Runway Information

Runway 3/21

Dimensions: 2600 x 40 ft. / 792 x 12 m
Surface: gravel
RUNWAY 3  RUNWAY 21
Traffic pattern: rightleft
Displaced threshold: 200 ft.no
Obstructions: 35 ft. pline, 200 ft. from runway50 ft. trees, 700 ft. from runway

Airport Ownership and Management from official FAA records

Ownership: Privately-owned
Owner: WILLIAM C. RICE JR.
17325 FM 3 SOUTH
NORMANGEE, TX 77871
Phone 936-396-6632
Manager: WILLIAM C. RICE JR.
17325 FM 3 SOUTH
NORMANGEE, TX 77871
Phone 409-396-6632

Airport Operational Statistics

Aircraft based on the field: 1
Single engine airplanes: 1
    

Additional Remarks

FOR CD CTC HOUSTON APCH AT 281-443-5844.

Instrument Procedures

There are no published instrument procedures at 6TS6.

Some nearby airports with instrument procedures:

51R - Madisonville Municipal Airport (15 nm SE)
KCFD - Coulter Field Airport (21 nm S)
KLHB - Hearne Municipal Airport (24 nm SW)
KCLL - Easterwood Field Airport (28 nm S)
KUTS - Huntsville Municipal Airport (36 nm SE)
 
Loc | Ops | Rwys | IFR | FBO | Links
Com | Nav | Svcs | Stats | Notes


 
Area around 6TS6 (Wood Crest Ranch Airport)
 
Road maps at: MapQuest Bing Google
 
Aerial photo
No photo
 
Sectional chart

 
Airport distance calculator
Flying to Wood Crest Ranch Airport? Find the distance to fly.

From to 6TS6

Sunrise and sunset
Times for 21-Aug-2018
 Local
(UTC-5)
 Zulu
(UTC)
Morning civil twilight06:3011:30
Sunrise06:5511:55
Sunset20:0001:00
Evening civil twilight20:2601:26

Current date and time
Zulu (UTC)  21-Aug-2018 11:03:51
Local (UTC-5)  21-Aug-2018 06:03:51
 
METAR
KCFD 
21nm S 
211055Z AUTO 23004KT 10SM CLR 26/25 A3007 RMK AO2 T02570245
KLHB 
24nm SW 
211055Z AUTO 00000KT 10SM CLR 25/22 A3006 RMK AO2 T02500221
KCLL 
29nm S 
211053Z AUTO 21005KT 10SM CLR 26/24 A3005 RMK AO2 SLP170 T02560239
KUTS 
36nm SE 
211053Z AUTO 22003KT 10SM FEW065 26/24 A3005 RMK AO2 SLP171 T02610239
KLXY 
39nm NW 
211055Z AUTO 02003KT 10SM CLR 24/19 A3006 RMK AO2 T02420185
KT35 
41nm W 
211055Z AUTO 22005KT 10SM CLR 26/23 A3005 RMK AO2 T02610225
KRWV 
41nm SW 
211055Z AUTO 22005KT 10SM CLR 25/23 A3006 RMK AO2 T02480228
TAF
KCLL 
29nm S 
210520Z 2106/2206 19010KT P6SM FEW020 FEW250 FM211600 27005KT P6SM SCT040 BKN250 FM212000 33006KT P6SM VCTS SCT060CB BKN250 FM220100 06006KT P6SM BKN250
NOTAMs
Click for the latest NOTAMs
NOTAMs are issued by the DoD/FAA and will open in a separate window not controlled by AirNav.

 

 
 

Would you like to see your business listed on this page?

 If your business provides an interesting product or service to pilots, flight crews, aircraft, or users of the Wood Crest Ranch Airport, you should consider listing it here.  To start the listing process, click on the button below
 
Add a business
 

Other Pages about Wood Crest Ranch Airport

Update a link
 
Copyright © AirNav, LLC. All rights reserved. Privacy Policy  Contact